• Join FlightAware (Why Join?)
  • Login
  • US Flag 
01:12PM EDT


 

Airport Tracker/Info


-or-


 

Live Flight TrackerFlight Track Log ✈ SWA2130 ✈ 21-Apr-2013 ✈ KELP - KSAT

Flight Track Log - Related Links

Times and Time Zones

All times are in EDT time to prevent confusion due to time zone crossing. See the SWA2130 flight status page for this flight to view local times or setup timezone preferences in your user account.

Time Position Orientation Groundspeed Altitude Reporting Facility
EDT Latitude Longitude Course Direction KTS MPH feet Rate Location/Type
11:22PM 31.7961 -106.3244 98° East 180 207 5,700  Level Albuquerque Center
11:23PM 31.7575 -106.2283 115° Southeast 301 346 7,600 2,760 Climbing Albuquerque Center
11:24PM 31.6928 -106.1644 140° Southeast 306 352 11,400 3,720 Climbing Albuquerque Center
11:25PM 31.6283 -106.0769 131° Southeast 353 406 15,200 3,720 Climbing Albuquerque Center
11:26PM 31.5633 -105.9817 129° Southeast 373 429 19,000 3,360 Climbing Albuquerque Center
11:27PM 31.5475 -105.9520 115° Southeast  Level FlightAware Approximate
11:27PM 31.5025 -105.8758 124° Southeast 393 452 22,100  Level Albuquerque Center
11:28PM 31.4600 -105.7508 112° Southeast 414 476 24,900 2,580 Climbing Albuquerque Center
11:29PM 31.4342 -105.6106 102° East 439 505 27,400 2,220 Climbing Albuquerque Center
11:30PM 31.4022 -105.4653 104° East 459 528 29,500 1,920 Climbing Albuquerque Center
11:31PM 31.3703 -105.3119 104° East 481 554 31,400 1,860 Climbing Albuquerque Center
11:32PM 31.3381 -105.1525 103° East 494 568 33,300 1,800 Climbing Albuquerque Center
11:33PM 31.3028 -104.9914 104° East 504 580 35,200 1,740 Climbing Albuquerque Center
11:34PM 31.2692 -104.8289 104° East 508 585 36,900 1,440 Climbing Albuquerque Center
11:35PM 31.2272 -104.6317 104° East 516 594 38,200 1,320 Climbing Albuquerque Center
11:36PM 31.1903 -104.4636 104° East 528 608 39,700 1,320 Climbing Albuquerque Center
11:37PM 31.1539 -104.2981 104° East 527 606 41,000 600 Climbing Albuquerque Center
11:38PM 31.1175 -104.1319 104° East 529 609 41,000  Level Albuquerque Center
11:39PM 31.0794 -103.9656 105° East 530 610 41,000  Level Albuquerque Center
11:40PM 31.0422 -103.8011 105° East 527 606 41,000  Level Albuquerque Center
11:41PM 31.0014 -103.6261 105° East 525 604 41,000  Level Albuquerque Center
11:42PM 30.9658 -103.4636 104° East 522 601 41,000  Level Albuquerque Center
11:43PM 30.9264 -103.3017 106° East 523 602 41,000  Level Albuquerque Center
11:45PM 30.8922 -103.1400 104° East 519 597 41,000  Level Albuquerque Center
11:46PM 30.8550 -102.9797 105° East 516 594 41,000  Level Albuquerque Center
11:47PM 30.8175 -102.8175 105° East 519 597 41,000  Level Albuquerque Center
11:48PM 30.7711 -102.6228 105° East 525 604 41,000  Level Albuquerque Center
11:49PM 30.7339 -102.4608 105° East 524 603 41,000  Level Albuquerque Center
11:50PM 30.6958 -102.2997 105° East 523 602 41,000  Level Albuquerque Center
11:51PM 30.6575 -102.1378 105° East 524 603 41,000  Level Albuquerque Center
11:52PM 30.6183 -101.9753 106° East 525 604 41,000  Level Albuquerque Center
11:53PM 30.5783 -101.8142 106° East 526 605 41,000  Level Albuquerque Center
11:53PM 30.5556 -101.7131 105° East 527 606 41,000  Level Houston Center
11:54PM 30.5147 -101.5453 106° East 525 604 41,000  Level Houston Center
11:55PM 30.4744 -101.3811 106° East 529 609 41,000  Level Houston Center
11:56PM 30.4344 -101.2164 106° East 531 611 41,000  Level Houston Center
11:57PM 30.3933 -101.0533 106° East 529 609 41,000 -300 Level Houston Center
11:58PM 30.3522 -100.8892 106° East 530 610 40,400 -1,560 Descending Houston Center
11:59PM 30.3119 -100.7278 106° East 523 602 37,900 -2,640 Descending Houston Center
12:00AM 30.2714 -100.5650 106° East 524 603 35,100 -2,820 Descending Houston Center
12:01AM 30.2308 -100.4028 106° East 522 601 32,300 -2,580 Descending Houston Center
12:02AM 30.1908 -100.2439 106° East 508 585 29,900 -2,400 Descending Houston Center
12:03AM 30.1511 -100.0917 107° East 483 556 27,500 -2,340 Descending Houston Center
12:04AM 30.1136 -99.9450 106° East 474 545 25,200 -2,220 Descending Houston Center
12:05AM 30.0781 -99.8078 107° East 450 518 23,100 -2,100 Descending Houston Center
12:06AM 30.0439 -99.6764 107° East 431 496 21,000 -1,980 Descending Houston Center
12:07AM 30.0106 -99.5503 107° East 414 476 19,100 -1,860 Descending Houston Center
12:08AM 29.9789 -99.4303 107° East 395 455 17,300 -1,860 Descending Houston Center
12:09AM 29.9469 -99.3147 108° East 382 440 15,400 -1,800 Descending Houston Center
12:10AM 29.9328 -99.2772 114° Southeast 374 430 15,000 -1,740 Descending Houston Center
12:10AM 29.9044 -99.2103 116° Southeast 362 417 13,700 -2,040 Descending Houston Center
12:11AM 29.8906 -99.1761 115° Southeast 350 403 13,000 -1,920 Descending Houston Center
12:11AM 29.8617 -99.1086 116° Southeast 352 405 11,800 -1,800 Descending Houston Center
12:12AM 29.8483 -99.0750 115° Southeast 349 402 11,200 -1,440 Descending Houston Center
12:12AM 29.8178 -98.9989 115° Southeast 333 383 10,400 -1,380 Descending Houston Center
12:13AM 29.7803 -98.9100 116° Southeast 309 356 8,900 -1,620 Descending Houston Center
12:14AM 29.7706 -98.8842 113° Southeast 299 344 8,300 -1,800 Descending Houston Center
12:14AM 29.7444 -98.8228 116° Southeast 301 346 7,100 -1,680 Descending Houston Center
12:15AM 29.7333 -98.7969 116° Southeast 301 346 6,600 -1,500 Descending Houston Center
12:15AM 29.7097 -98.7378 115° Southeast 293 337 5,600 -1,440 Descending Houston Center
12:16AM 29.6989 -98.7144 118° Southeast 283 326 5,200 -1,200 Descending Houston Center
12:16AM 29.6778 -98.6622 115° Southeast 267 307 4,400 -1,020 Descending Houston Center
12:17AM 29.6653 -98.6464 132° Southeast 241 277 4,200 -720 Descending Houston Center
12:17AM 29.6386 -98.6086 129° Southeast 220 253 3,700 -840 Descending Houston Center
12:18AM 29.6294 -98.5978 134° Southeast 184 212 3,400 -1,020 Descending Houston Center
12:18AM 29.6069 -98.5675 131° Southeast 183 211 2,700 -900 Descending Houston Center
12:19AM 29.5986 -98.5581 135° Southeast 153 176 2,500 -720 Descending Houston Center
12:19AM 29.5803 -98.5333 130° Southeast 139 160 2,000 -720 Descending Houston Center
12:20AM 29.5747 -98.5272 136° Southeast 122 140 1,800 -720 Descending Houston Center
12:20AM 29.5581 -98.5039 129° Southeast 125 144 1,300 -720 Descending Houston Center
12:21AM 29.5508 -98.4967 139° Southeast 116 133 1,100 -540 Descending Houston Center
12:21AM 29.5406 -98.4811 127° Southeast 117 135 800 -420 Descending Houston Center
12:23AM 29.5333 -98.4667 120° Southeast  Level FlightAware Approximate
12:30AM 29.5340 -98.4691 120° Southeast  Level Estimated
12:31AM 29.5333 -98.4667 120° Southeast  Level FlightAware Approximate